Latest Coastal Weather Observations for Gabo Island (VIC)

IDN60701

Issued at 5:51 pm EDT Tuesday 17 January 2017 (issued every 10 minutes, with the page automatically refreshed every 10 minutes)

About coastal observations | Map of coastal stations | Coastal observations for NSW | Marine services | Other Formats
Station Details ID: 084016 Name: GABO ISLAND LIGHTHOUSE Lat: -37.57 Lon: 149.92 Height: 15.2 m
Data from the previous 72 hours. | See also: Recent months at Gabo Island (VIC)
Date/Time
EDT
Temp
°C
Wind Pressure Rain since
9am
mm
Weather Cloud Vis
km
Sea
Height
m
Swell
Dir  Spd
kts
Gust
kts
hPa Trend Height
m
Period
s
Dir
17/05:30pm 26.4 S 11 15 1007.4 - 0.0 - - - - - - -
17/05:00pm 27.8 NNE 9 11 1006.6 - 0.0 - - - - - - -
17/04:30pm 26.2 NNE 10 13 1006.4 - 0.0 - - - - - - -
17/04:00pm 25.2 NE 14 16 1006.2 - 0.0 - - - - - - -
17/03:30pm 28.8 NNE 15 18 1006.3 - 0.0 - - - - - - -
17/03:00pm 28.0 NNE 17 21 1006.1 - 0.0 Haze Partly cloudy 10 1 1.0 - -
17/02:30pm 27.4 NE 16 20 1006.2 - 0.0 - - - - - - -
17/02:00pm 26.6 NE 12 16 1006.8 - 0.0 - - - - - - -
17/01:30pm 26.2 NE 11 15 1007.2 - 0.0 - - - - - - -
17/01:00pm 26.4 NE 7 11 1007.7 - 0.0 - - - - - - -
17/12:30pm 26.0 NE 7 10 1008.1 - 0.0 - - - - - - -
17/12:00pm 25.1 NE 8 11 1008.5 - 0.0 - - - - - - -
17/11:30am 24.8 NNE 7 9 1008.8 - 0.0 - - - - - - -
17/11:00am 24.4 NNE 7 8 1009.1 - 0.0 - - - - - - -
17/10:30am 24.3 ENE 3 5 1009.4 - 0.0 - - - - - - -
17/10:00am 24.1 NE 5 5 1009.3 - 0.0 - - - - - - -
17/09:30am 23.7 CALM 0 0 1009.5 - 0.0 - - - - - - -
17/09:00am 23.3 S 2 3 1009.5 - 0.0 Fine Mostly cloudy 15 <0.5 1.0 - -
17/08:30am 22.2 NNE 4 6 1009.6 - 0.0 - - - - - - -
17/08:00am 20.7 NE 6 8 1009.5 - 0.0 - - - - - - -
17/07:30am 20.7 NNE 7 9 1008.8 - 0.0 - - - - - - -
17/07:00am 19.4 NNE 5 6 1008.8 - 0.0 - - - - - - -
17/06:30am 18.7 NNE 5 6 1008.6 - 0.0 - - - - - - -
17/06:00am 19.7 N 8 9 1008.4 - 0.0 - - - - - - -
17/05:30am 20.0 N 10 12 1008.3 - 0.0 - - - - - - -
17/05:00am 20.0 NNE 10 12 1008.1 - 0.0 - - - - - - -
17/04:30am 19.9 N 10 12 1008.5 - 0.0 - - - - - - -
17/04:00am 20.1 NE 9 11 1008.5 - 0.0 - - - - - - -
17/03:30am 20.2 N 7 9 1009.1 - 0.0 - - - - - - -
17/03:00am 20.3 N 11 15 1008.9 - 0.0 Fine Partly cloudy 20 1 1.0 - -
17/02:30am 20.5 NNE 10 13 1009.5 - 0.0 - - - - - - -
17/02:00am 20.8 NNE 11 15 1010.1 - 0.0 - - - - - - -
17/01:30am 20.4 NNE 7 9 1010.9 - 0.0 - - - - - - -
17/01:00am 20.7 NNE 11 16 1011.3 - 0.0 - - - - - - -
17/12:30am 20.5 NNE 14 16 1011.9 - 0.0 - - - - - - -
17/12:00am 20.2 NNE 10 12 1012.2 - 0.0 - - - - - - -
 
Date/Time
EDT
Temp
°C
Wind Pressure Rain since
9am
mm
Weather Cloud Vis
km
Sea
Height
m
Swell
Dir  Spd
kts
Gust
kts
hPa Trend Height
m
Period
s
Dir
16/11:30pm 20.1 NE 10 11 1012.9 - 0.0 - - - - - - -
16/11:00pm 19.9 NNE 11 14 1013.0 - 0.0 - - - - - - -
16/10:30pm 19.5 N 7 9 1013.8 - 0.0 - - - - - - -
16/10:00pm 19.6 NNE 9 11 1013.8 - 0.0 - - - - - - -
16/09:30pm 19.8 NNE 10 11 1013.7 - 0.0 - - - - - - -
16/09:00pm 20.2 NNE 10 11 1013.8 - 0.0 Fine Mostly clear 15 <0.5 1.0 - -
16/08:30pm 20.4 NE 11 13 1013.8 - 0.0 - - - - - - -
16/08:00pm 20.6 NE 12 13 1013.6 - 0.0 - - - - - - -
16/07:30pm 20.1 NE 9 11 1013.5 - 0.0 - - - - - - -
16/07:00pm 20.2 E 6 7 1013.6 - 0.0 - - - - - - -
16/06:30pm 20.7 ESE 4 5 1013.7 - 0.0 - - - - - - -
16/06:00pm 20.6 ESE 4 5 1013.5 - 0.0 - - - - - - -
16/05:30pm 20.7 S 5 6 1013.8 - 0.0 - - - - - - -
16/05:00pm 21.3 S 6 8 1013.8 - 0.0 - - - - - - -
16/04:30pm 20.6 S 6 7 1013.7 - 0.0 - - - - - - -
16/04:00pm 21.5 S 9 10 1014.3 - 0.0 - - - - - - -
16/03:30pm 21.0 S 11 13 1014.4 - 0.0 - - - - - - -
16/03:00pm 21.3 S 10 11 1014.3 - 0.0 Fine Clear 15 1 1.0 - -
16/02:30pm 20.9 S 9 11 1014.5 - 0.0 - - - - - - -
16/02:00pm 21.2 S 10 12 1014.8 - 0.0 - - - - - - -
16/01:30pm 21.2 S 11 12 1015.0 - 0.0 - - - - - - -
16/01:00pm 21.1 S 11 12 1015.2 - 0.0 - - - - - - -
16/12:30pm 21.0 SSW 11 12 1015.4 - 0.0 - - - - - - -
16/12:00pm 20.8 S 11 12 1015.2 - 0.0 - - - - - - -
16/11:30am 20.6 S 11 12 1015.5 - 0.0 - - - - - - -
16/11:00am 20.1 SSW 12 14 1015.7 - 0.0 - - - - - - -
16/10:30am 19.0 SSW 12 14 1015.8 - 0.0 - - - - - - -
16/10:00am 18.6 SSW 11 13 1015.8 - 0.0 - - - - - - -
16/09:30am 18.9 SW 10 12 1016.1 - 0.0 - - - - - - -
16/09:00am 18.6 SSW 9 10 1016.0 - 0.0 Fine Mostly clear 20 1 1.0 - -
16/08:30am 18.3 SSW 8 10 1016.2 - 0.0 - - - - - - -
16/08:00am 18.4 SSW 6 7 1015.9 - 0.0 - - - - - - -
16/07:30am 17.5 SSW 4 5 1015.7 - 0.0 - - - - - - -
16/07:00am 17.3 SSW 4 5 1015.6 - 0.0 - - - - - - -
16/06:30am 17.0 S 4 5 1015.5 - 0.0 - - - - - - -
16/06:00am 17.2 S 4 5 1015.3 - 0.0 - - - - - - -
16/05:30am 17.1 S 4 5 1015.3 - 0.0 - - - - - - -
16/05:00am 17.2 WSW 3 4 1015.3 - 0.0 - - - - - - -
16/04:30am 17.1 SW 4 5 1015.2 - 0.0 - - - - - - -
16/04:00am 17.1 WSW 4 6 1015.3 - 0.0 - - - - - - -
16/03:30am 16.9 WSW 5 6 1015.5 - 0.0 - - - - - - -
16/03:00am 16.9 WSW 5 6 1015.6 - 0.0 Fine Cloudy 30 1 1.0 - -
16/02:30am 16.7 W 5 6 1016.1 - 0.0 - - - - - - -
16/02:00am 16.8 WSW 6 7 1016.5 - 0.0 - - - - - - -
16/01:30am 16.7 WSW 6 7 1016.8 - 0.0 - - - - - - -
16/01:00am 16.7 W 6 7 1016.9 - 0.0 - - - - - - -
16/12:30am 16.7 WSW 8 10 1017.2 - 0.0 - - - - - - -
16/12:00am 16.5 W 7 8 1017.3 - 0.0 - - - - - - -
 
Date/Time
EDT
Temp
°C
Wind Pressure Rain since
9am
mm
Weather Cloud Vis
km
Sea
Height
m
Swell
Dir  Spd
kts
Gust
kts
hPa Trend Height
m
Period
s
Dir
15/11:30pm 16.3 W 8 10 1017.7 - 0.0 - - - - - - -
15/11:00pm 17.1 WSW 9 11 1018.0 - 0.0 - - - - - - -
15/10:30pm 17.5 SW 11 13 1018.0 - 0.0 - - - - - - -
15/10:00pm 17.4 SW 9 11 1018.3 - 0.0 - - - - - - -
15/09:30pm 17.4 SW 11 13 1018.3 - 0.0 - - - - - - -
15/09:00pm 17.5 SW 12 14 1018.1 - 0.0 Fine Mostly cloudy 30 2 1.0 - -
15/08:30pm 17.3 SSW 12 13 1017.9 - 0.0 - - - - - - -
15/08:00pm 17.6 SSW 12 15 1017.6 - 0.0 - - - - - - -
15/07:30pm 18.1 SSW 13 15 1017.3 - 0.0 - - - - - - -
15/07:00pm 18.5 SSW 13 16 1017.0 - 0.0 - - - - - - -
15/06:30pm 18.3 SSW 15 18 1016.9 - 0.0 - - - - - - -
15/06:00pm 18.5 SSW 17 21 1016.4 - 0.0 - - - - - - -
15/05:30pm 18.5 SSW 19 21 1016.3 - 0.0 - - - - - - -
15/05:00pm 18.5 SSW 21 24 1016.4 - 0.0 - - - - - - -
15/04:30pm 18.7 SSW 21 25 1016.6 - 0.0 - - - - - - -
15/04:00pm 18.8 SSW 23 28 1016.3 - 0.0 - - - - - - -
15/03:30pm 18.8 SSW 25 30 1016.3 - 0.0 - - - - - - -
15/03:00pm 18.3 SSW 26 31 1016.2 - 0.0 Fine Mostly clear 25 3 1.0 - -
15/02:30pm 18.3 SSW 26 30 1016.3 - 0.0 - - - - - - -
15/02:00pm 18.3 SSW 29 33 1016.4 - 0.0 - - - - - - -
15/01:30pm 18.0 SSW 29 34 1016.6 - 0.0 - - - - - - -
15/01:00pm 18.2 SW 29 34 1016.7 - 0.0 - - - - - - -
15/12:30pm 18.5 SW 26 30 1016.9 - 0.0 - - - - - - -
15/12:00pm 18.5 SW 24 29 1016.7 - 0.0 - - - - - - -
15/11:30am 18.7 SW 23 26 1016.9 - 0.0 - - - - - - -
15/11:00am 18.5 SW 20 24 1017.0 - 0.0 - - - - - - -
15/10:30am 19.0 SW 23 28 1017.0 - 0.0 - - - - - - -
15/10:00am 18.8 WSW 24 30 1016.8 - 0.0 - - - - - - -
15/09:30am 18.4 WSW 26 32 1016.3 - 0.0 - - - - - - -
15/09:00am 18.4 WSW 21 26 1016.4 - 0.0 Fine Mostly cloudy 20 3 1.0 - -
15/08:30am 17.5 W 21 24 1016.3 - 0.0 - - - - - - -
15/08:00am 17.2 WSW 23 30 1016.0 - 0.0 - - - - - - -
15/07:30am 16.6 WSW 23 27 1015.6 - 0.0 - - - - - - -
15/07:00am 16.3 WSW 21 26 1015.4 - 0.0 - - - - - - -
15/06:30am 15.9 W 21 26 1015.0 - 0.0 - - - - - - -
15/06:00am 16.1 W 20 25 1014.7 - 0.0 - - - - - - -
15/05:30am 16.6 WSW 19 24 1014.7 - 0.0 - - - - - - -
15/05:00am 17.1 WSW 17 21 1014.2 - 0.0 - - - - - - -
15/04:30am 16.8 WSW 18 25 1013.8 - 0.0 - - - - - - -
15/04:00am 17.0 WSW 19 25 1013.6 - 0.0 - - - - - - -
15/03:30am 17.1 WSW 19 24 1013.5 - 0.0 - - - - - - -
15/03:00am 17.1 WSW 21 26 1013.5 - 0.0 - - - - - - -
15/02:30am 17.0 WSW 25 30 1013.4 - 0.0 - - - - - - -
15/02:00am 17.4 WSW 26 35 1013.4 - 0.0 - - - - - - -
15/01:39am 17.5 WSW 27 40 1013.1 - 0.0 - - - - - - -
15/01:30am 17.7 WSW 27 36 1013.3 - 0.0 - - - - - - -
15/01:00am 18.0 WSW 29 36 1013.0 - 0.0 - - - - - - -
15/12:50am 18.1 WSW 27 38 1013.0 - 0.0 - - - - - - -
15/12:30am 17.7 WSW 23 28 1013.1 - 0.0 - - - - - - -
15/12:00am 17.6 WSW 24 30 1012.6 - 0.0 - - - - - - -
 
Date/Time
EDT
Temp
°C
Wind Pressure Rain since
9am
mm
Weather Cloud Vis
km
Sea
Height
m
Swell
Dir  Spd
kts
Gust
kts
hPa Trend Height
m
Period
s
Dir
14/11:30pm 18.0 WSW 23 29 1012.4 - 0.0 - - - - - - -
14/11:00pm 18.1 WSW 23 33 1012.2 - 0.0 - - - - - - -
14/10:47pm 18.2 WSW 27 37 1012.1 - 0.0 - - - - - - -
14/10:30pm 18.2 WSW 28 35 1011.9 - 0.0 - - - - - - -
14/10:11pm 18.3 WSW 28 38 1011.6 - 0.0 - - - - - - -
14/10:00pm 18.4 WSW 28 35 1011.3 - 0.0 - - - - - - -
14/09:30pm 18.4 WSW 25 32 1010.8 - 0.0 - - - - - - -
14/09:00pm 18.4 SW 30 38 1010.1 - 0.0 Fine Partly cloudy 20 3 1.0 - -
14/08:32pm 18.6 SW 29 39 1009.7 - 0.0 - - - - - - -
14/08:30pm 18.5 SW 30 39 1009.6 - 0.0 - - - - - - -
14/08:00pm 18.7 SW 29 35 1008.8 - 0.0 - - - - - - -
14/07:30pm 19.1 SW 28 33 1008.2 - 0.0 - - - - - - -
14/07:00pm 19.5 SW 34 40 1007.0 - 0.0 - - - - - - -
14/06:30pm 19.9 SW 32 40 1006.3 - 0.0 - - - - - - -
14/06:00pm 19.7 SW 35 42 1005.9 - 0.0 - - - - - - -

Other Formats:

Comma delimited format used in spreadsheet applications
http://www.bom.gov.au/fwo/IDN60701/IDN60701.94933.axf

JavaScript Object Notation format (JSON) in row-major order
http://www.bom.gov.au/fwo/IDN60701/IDN60701.94933.json